createdAt,value
2022-09-25T00:01:40.925Z,40.67
2022-09-25T00:04:26.723Z,37.25
2022-09-25T00:07:12.433Z,39.03
2022-09-25T00:09:57.995Z,36.97
2022-09-25T00:12:43.535Z,34.40
2022-09-25T00:15:29.187Z,37.30
2022-09-25T00:18:15.367Z,36.47
2022-09-25T00:21:01.814Z,37.30
2022-09-25T00:23:47.819Z,37.25
2022-09-25T00:26:36.969Z,32.45
2022-09-25T00:29:22.637Z,34.13
2022-09-25T00:32:13.372Z,30.75
2022-09-25T00:34:59.012Z,31.10
2022-09-25T00:37:44.571Z,32.95
2022-09-25T00:40:30.244Z,33.50
2022-09-25T00:43:37.682Z,33.05
2022-09-25T00:46:38.323Z,29.63
2022-09-25T00:49:25.704Z,31.52
2022-09-25T00:52:13.330Z,30.98
2022-09-25T00:55:10.071Z,30.20
2022-09-25T00:57:57.678Z,34.88
2022-09-25T01:00:44.024Z,31.88
2022-09-25T01:03:29.870Z,35.42
2022-09-25T01:06:17.517Z,33.35
2022-09-25T01:09:03.419Z,35.17
2022-09-25T01:11:48.768Z,33.45
2022-09-25T01:14:34.774Z,36.67
2022-09-25T01:17:45.603Z,39.10
2022-09-25T01:21:05.486Z,39.63
2022-09-25T01:24:28.908Z,38.95
2022-09-25T01:27:46.195Z,37.38
2022-09-25T01:30:36.686Z,38.97
2022-09-25T01:33:34.288Z,38.10
2022-09-25T01:36:36.155Z,38.80
2022-09-25T01:39:30.051Z,37.75
2022-09-25T01:42:34.139Z,44.72
2022-09-25T01:45:28.983Z,42.72
2022-09-25T01:48:18.347Z,37.45
2022-09-25T01:51:05.998Z,38.17
2022-09-25T01:53:57.059Z,37.25
2022-09-25T01:56:53.858Z,42.80
2022-09-25T02:00:19.021Z,40.40
2022-09-25T02:03:25.997Z,41.47
2022-09-25T02:06:16.986Z,37.78
2022-09-25T02:09:15.019Z,42.70
2022-09-25T02:12:06.739Z,40.25
2022-09-25T02:15:00.799Z,40.03
2022-09-25T02:18:14.444Z,39.85
2022-09-25T02:21:38.788Z,35.30
2022-09-25T02:27:22.507Z,38.92
2022-09-25T02:30:08.798Z,33.70
2022-09-25T02:32:54.804Z,33.35
2022-09-25T02:35:42.337Z,31.35
2022-09-25T02:38:29.559Z,31.15
2022-09-25T02:41:21.639Z,27.60
2022-09-25T02:44:20.204Z,29.58
2022-09-25T02:47:36.082Z,30.83
2022-09-25T02:50:51.611Z,28.75
2022-09-25T02:54:07.439Z,31.45
2022-09-25T02:57:09.106Z,25.90
2022-09-25T02:59:59.486Z,28.95
2022-09-25T03:02:52.205Z,28.30
2022-09-25T03:05:39.233Z,27.88
2022-09-25T03:08:41.744Z,32.45
2022-09-25T03:11:27.949Z,26.95
2022-09-25T03:14:13.557Z,26.88
2022-09-25T03:17:03.719Z,28.63
2022-09-25T03:19:49.523Z,25.70
2022-09-25T03:22:39.608Z,26.80
2022-09-25T03:25:25.394Z,25.45
2022-09-25T03:28:13.036Z,25.42
2022-09-25T03:31:08.042Z,24.65
2022-09-25T03:33:54.312Z,25.23
2022-09-25T03:36:40.678Z,23.92
2022-09-25T03:39:26.334Z,22.80
2022-09-25T03:42:12.144Z,25.02
2022-09-25T03:44:57.748Z,21.85
2022-09-25T03:47:43.384Z,21.55
2022-09-25T03:50:29.183Z,23.95
2022-09-25T03:53:14.958Z,26.60
2022-09-25T03:56:03.159Z,26.42
2022-09-25T03:58:51.109Z,22.70
2022-09-25T04:01:37.116Z,28.25
2022-09-25T04:04:23.305Z,25.65
2022-09-25T04:07:10.414Z,25.58
2022-09-25T04:09:56.236Z,24.90
2022-09-25T04:12:47.211Z,27.27
2022-09-25T04:15:33.832Z,27.50
2022-09-25T04:18:19.560Z,29.65
2022-09-25T04:21:08.524Z,29.00
2022-09-25T04:24:12.629Z,29.35
2022-09-25T04:26:58.592Z,30.98
2022-09-25T04:29:43.970Z,28.15
2022-09-25T04:32:51.315Z,32.50
2022-09-25T04:35:36.994Z,33.38
2022-09-25T04:38:22.507Z,28.75
2022-09-25T04:41:08.358Z,29.60
2022-09-25T04:43:54.844Z,28.92
2022-09-25T04:46:40.740Z,28.02
2022-09-25T04:49:26.772Z,29.08
2022-09-25T04:52:13.779Z,26.27
2022-09-25T04:55:00.758Z,26.25
2022-09-25T04:57:59.076Z,28.42
2022-09-25T05:00:45.182Z,27.13
2022-09-25T05:03:30.926Z,27.40
2022-09-25T05:06:16.376Z,27.30
2022-09-25T05:09:02.054Z,30.23
2022-09-25T05:11:47.490Z,28.08
2022-09-25T05:14:33.004Z,26.20
2022-09-25T05:17:18.627Z,27.85
2022-09-25T05:20:04.535Z,25.00
2022-09-25T05:22:53.806Z,24.92
2022-09-25T05:25:39.562Z,25.27
2022-09-25T05:28:25.563Z,29.15
2022-09-25T05:31:11.419Z,31.58
2022-09-25T05:33:57.234Z,32.40
2022-09-25T05:36:43.104Z,32.70
2022-09-25T05:39:28.585Z,29.90
2022-09-25T05:42:16.034Z,33.90
2022-09-25T05:45:07.280Z,33.13
2022-09-25T05:48:19.710Z,34.20
2022-09-25T05:51:06.293Z,33.65
2022-09-25T05:53:54.168Z,32.03
2022-09-25T05:56:39.598Z,35.30
2022-09-25T05:59:25.082Z,30.83
2022-09-25T06:02:12.671Z,31.55
2022-09-25T06:04:58.459Z,34.70
2022-09-25T06:07:44.121Z,37.00
2022-09-25T06:10:31.069Z,32.20
2022-09-25T06:13:16.475Z,31.33
2022-09-25T06:16:02.773Z,34.45
2022-09-25T06:18:48.463Z,32.35
2022-09-25T06:21:34.861Z,34.63
2022-09-25T06:24:20.707Z,34.53
2022-09-25T06:27:07.263Z,33.45
2022-09-25T06:29:53.038Z,32.70
2022-09-25T06:32:38.681Z,37.75
2022-09-25T06:35:24.454Z,36.30
2022-09-25T06:38:11.123Z,29.88
2022-09-25T06:41:00.400Z,30.05
2022-09-25T06:43:49.920Z,31.67
2022-09-25T06:46:36.642Z,33.42
2022-09-25T06:49:22.497Z,33.13
2022-09-25T06:52:08.264Z,29.77
2022-09-25T06:54:54.024Z,30.48
2022-09-25T06:57:39.583Z,30.58
2022-09-25T07:00:25.300Z,26.77
2022-09-25T07:03:29.561Z,30.80
2022-09-25T07:06:20.722Z,29.02
2022-09-25T07:09:06.301Z,29.38
2022-09-25T07:11:53.138Z,28.35
2022-09-25T07:14:39.150Z,27.25
2022-09-25T07:17:24.596Z,27.70
2022-09-25T07:20:14.030Z,31.95
2022-09-25T07:23:04.110Z,29.58
2022-09-25T07:25:50.022Z,32.05
2022-09-25T07:28:37.098Z,33.53
2022-09-25T07:31:26.053Z,30.15
2022-09-25T07:34:13.011Z,29.05
2022-09-25T07:36:58.612Z,30.05
2022-09-25T07:39:44.538Z,30.05
2022-09-25T07:42:30.439Z,32.33
2022-09-25T07:45:16.283Z,33.05
2022-09-25T07:48:03.638Z,32.38
2022-09-25T07:50:50.133Z,30.95
2022-09-25T07:53:36.002Z,32.67
2022-09-25T07:56:21.554Z,35.58
2022-09-25T07:59:07.039Z,31.80
2022-09-25T08:01:54.281Z,30.30
2022-09-25T08:04:40.224Z,34.58
2022-09-25T08:07:28.071Z,34.45
2022-09-25T08:10:14.071Z,35.58
2022-09-25T08:13:00.261Z,32.72
2022-09-25T08:15:45.700Z,33.80
2022-09-25T08:18:31.437Z,32.90
2022-09-25T08:21:19.961Z,34.08
2022-09-25T08:24:05.871Z,39.13
2022-09-25T08:26:51.533Z,35.40
2022-09-25T08:29:37.218Z,36.75
2022-09-25T08:32:23.140Z,36.33
2022-09-25T08:35:09.453Z,36.85
2022-09-25T08:37:57.147Z,31.52
2022-09-25T08:40:58.437Z,36.30
2022-09-25T08:44:00.823Z,36.35
2022-09-25T08:47:19.278Z,35.13
2022-09-25T08:50:26.634Z,35.70
2022-09-25T08:53:23.985Z,36.90
2022-09-25T08:56:15.305Z,37.97
2022-09-25T08:59:10.719Z,40.25
2022-09-25T09:02:10.457Z,31.98
2022-09-25T09:05:01.252Z,35.20
2022-09-25T09:07:54.039Z,38.20
2022-09-25T09:10:49.303Z,36.43
2022-09-25T09:13:58.647Z,33.47
2022-09-25T09:16:45.529Z,35.95
2022-09-25T09:19:31.380Z,36.28
2022-09-25T09:22:26.432Z,36.28
2022-09-25T09:25:38.284Z,32.15
2022-09-25T09:28:54.789Z,33.67
2022-09-25T09:31:44.720Z,33.72
2022-09-25T09:38:19.801Z,35.28
2022-09-25T09:41:33.487Z,32.30
2022-09-25T09:44:40.272Z,33.97
2022-09-25T09:47:31.572Z,27.00
2022-09-25T09:50:49.813Z,31.52
2022-09-25T09:53:37.399Z,27.40
2022-09-25T09:56:30.949Z,25.13
2022-09-25T10:02:41.272Z,27.95
2022-09-25T10:05:32.910Z,26.95
2022-09-25T10:08:18.497Z,25.33
2022-09-25T10:11:17.096Z,23.83
2022-09-25T10:14:04.502Z,24.77
2022-09-25T10:16:52.144Z,27.27
2022-09-25T10:20:01.675Z,22.85
2022-09-25T10:22:48.946Z,23.67
2022-09-25T10:25:43.676Z,23.95
2022-09-25T10:28:34.235Z,20.15
2022-09-25T10:31:21.160Z,19.23
2022-09-25T10:34:21.163Z,21.17
2022-09-25T10:37:20.361Z,21.35
2022-09-25T10:40:22.791Z,23.35
2022-09-25T10:43:24.210Z,19.17
2022-09-25T10:46:10.185Z,20.40
2022-09-25T10:49:33.678Z,19.70
2022-09-25T10:52:19.862Z,18.42
2022-09-25T10:55:25.361Z,19.33
2022-09-25T10:58:11.024Z,18.95
2022-09-25T11:00:59.583Z,18.33
2022-09-25T11:03:53.359Z,17.77
2022-09-25T11:06:48.167Z,17.67
2022-09-25T11:09:35.620Z,16.88
2022-09-25T11:12:26.976Z,19.33
2022-09-25T11:15:18.582Z,19.92
2022-09-25T11:18:06.126Z,16.92
2022-09-25T11:21:02.984Z,20.30
2022-09-25T11:24:14.312Z,19.70
2022-09-25T11:27:17.117Z,19.38
2022-09-25T11:30:17.480Z,19.17
2022-09-25T11:33:17.850Z,13.05
2022-09-25T11:36:09.703Z,18.17
2022-09-25T11:39:21.540Z,19.80
2022-09-25T11:42:33.554Z,20.60
2022-09-25T11:45:22.022Z,22.98
2022-09-25T11:48:26.735Z,23.25
2022-09-25T11:51:18.779Z,20.85
2022-09-25T11:54:40.561Z,20.77
2022-09-25T11:57:53.616Z,20.83
2022-09-25T12:01:13.110Z,18.13
2022-09-25T12:04:12.924Z,21.38
2022-09-25T12:07:05.876Z,18.98
2022-09-25T12:10:07.732Z,21.88
2022-09-25T12:13:15.604Z,19.60
2022-09-25T12:16:20.405Z,18.15
2022-09-25T12:19:28.692Z,19.17
2022-09-25T12:22:51.981Z,18.70
2022-09-25T12:25:46.918Z,21.88
2022-09-25T12:28:54.671Z,20.33
2022-09-25T12:31:40.051Z,17.02
2022-09-25T12:34:44.343Z,19.83
2022-09-25T12:37:43.765Z,18.98
2022-09-25T12:40:43.530Z,17.70
2022-09-25T12:43:41.295Z,18.30
2022-09-25T12:46:53.482Z,17.98
2022-09-25T12:49:44.526Z,17.38
2022-09-25T12:52:42.390Z,19.48
2022-09-25T12:55:52.724Z,17.98
2022-09-25T12:59:10.892Z,13.57
2022-09-25T13:02:02.606Z,13.63
2022-09-25T13:04:54.412Z,15.13
2022-09-25T13:07:49.591Z,15.43
2022-09-25T13:10:54.272Z,14.68
2022-09-25T13:13:52.935Z,15.48
2022-09-25T13:16:38.679Z,13.95
2022-09-25T13:19:28.172Z,12.85
2022-09-25T13:22:26.011Z,13.18
2022-09-25T13:25:16.674Z,13.52
2022-09-25T13:28:08.258Z,15.40
2022-09-25T13:31:10.568Z,14.48
2022-09-25T13:34:10.249Z,16.52
2022-09-25T13:36:57.358Z,18.02
2022-09-25T13:40:09.455Z,10.90
2022-09-25T13:43:20.987Z,9.77
2022-09-25T13:46:23.407Z,12.30
2022-09-25T13:49:35.452Z,10.98
2022-09-25T13:52:31.462Z,14.10
2022-09-25T13:55:21.222Z,13.38
2022-09-25T13:58:24.512Z,15.02
2022-09-25T14:01:37.688Z,11.02
2022-09-25T14:04:28.894Z,11.50
2022-09-25T14:07:23.116Z,8.32
2022-09-25T14:10:11.139Z,9.68
2022-09-25T14:12:56.933Z,7.93
2022-09-25T14:15:45.132Z,10.15
2022-09-25T14:18:39.303Z,13.27
2022-09-25T14:21:28.837Z,12.60
2022-09-25T14:24:20.218Z,12.25
2022-09-25T14:27:27.947Z,13.73
2022-09-25T14:30:14.799Z,14.10
2022-09-25T14:33:09.176Z,12.98
2022-09-25T14:36:01.206Z,15.95
2022-09-25T14:39:20.716Z,9.68
2022-09-25T14:42:27.418Z,15.52
2022-09-25T14:45:16.690Z,13.55
2022-09-25T14:48:10.431Z,15.70
2022-09-25T14:51:01.177Z,17.17
2022-09-25T14:53:54.015Z,16.85
2022-09-25T14:56:40.061Z,17.50
2022-09-25T14:59:50.585Z,20.60
2022-09-25T15:02:39.817Z,21.27
2022-09-25T15:05:31.281Z,16.13
2022-09-25T15:08:52.745Z,15.73
2022-09-25T15:11:43.520Z,17.00
2022-09-25T15:14:28.899Z,17.88
2022-09-25T15:17:23.552Z,18.00
2022-09-25T15:20:14.326Z,16.92
2022-09-25T15:23:04.889Z,18.70
2022-09-25T15:25:54.956Z,14.98
2022-09-25T15:28:41.695Z,17.85
2022-09-25T15:31:35.215Z,17.05
2022-09-25T15:34:27.409Z,16.77
2022-09-25T15:37:20.936Z,17.33
2022-09-25T15:40:29.939Z,16.88
2022-09-25T15:43:17.860Z,18.23
2022-09-25T15:46:03.559Z,18.80
2022-09-25T15:48:58.819Z,18.33
2022-09-25T15:51:52.762Z,16.05
2022-09-25T15:54:44.495Z,17.05
2022-09-25T15:57:32.070Z,14.07
2022-09-25T16:00:42.962Z,15.77
2022-09-25T16:03:49.816Z,16.08
2022-09-25T16:06:43.636Z,16.75
2022-09-25T16:09:30.437Z,13.70
2022-09-25T16:12:28.437Z,16.95
2022-09-25T16:15:32.190Z,15.43
2022-09-25T16:18:23.693Z,16.30
2022-09-25T16:21:14.947Z,16.77
2022-09-25T16:24:07.454Z,15.85
2022-09-25T16:27:04.340Z,25.77
2022-09-25T16:29:51.042Z,17.70
2022-09-25T16:32:36.575Z,13.63
2022-09-25T16:35:56.884Z,16.58
2022-09-25T16:38:45.090Z,16.23
2022-09-25T16:41:30.809Z,20.13
2022-09-25T16:44:25.413Z,19.23
2022-09-25T16:47:20.095Z,17.80
2022-09-25T16:50:05.947Z,20.25
2022-09-25T16:52:52.077Z,18.67
2022-09-25T16:55:47.669Z,20.77
2022-09-25T16:58:34.192Z,21.90
2022-09-25T17:01:21.835Z,20.13
2022-09-25T17:04:09.178Z,18.48
2022-09-25T17:06:57.069Z,17.25
2022-09-25T17:09:43.146Z,21.25
2022-09-25T17:12:31.289Z,19.58
2022-09-25T17:15:23.774Z,20.75
2022-09-25T17:18:21.143Z,19.50
2022-09-25T17:21:13.057Z,22.52
2022-09-25T17:23:58.787Z,20.55
2022-09-25T17:26:46.709Z,24.77
2022-09-25T17:29:32.817Z,23.90
2022-09-25T17:32:18.903Z,22.67
2022-09-25T17:35:35.213Z,24.17
2022-09-25T17:38:21.314Z,20.60
2022-09-25T17:41:26.776Z,21.05
2022-09-25T17:44:16.802Z,19.50
2022-09-25T17:47:02.608Z,20.58
2022-09-25T17:49:49.756Z,21.13
2022-09-25T17:52:35.023Z,19.50
2022-09-25T17:55:21.130Z,20.98
2022-09-25T17:58:06.857Z,24.20
2022-09-25T18:00:53.650Z,22.92
2022-09-25T18:03:39.627Z,19.02
2022-09-25T18:06:26.654Z,23.73
2022-09-25T18:09:12.567Z,31.23
2022-09-25T18:11:58.103Z,20.65
2022-09-25T18:14:46.570Z,21.05
2022-09-25T18:17:32.230Z,20.33
2022-09-25T18:20:36.845Z,20.27
2022-09-25T18:23:22.400Z,19.65
2022-09-25T18:26:09.348Z,22.38
2022-09-25T18:28:55.417Z,21.33
2022-09-25T18:31:41.525Z,22.70
2022-09-25T18:34:28.970Z,24.85
2022-09-25T18:37:14.467Z,24.33
2022-09-25T18:40:00.259Z,23.30
2022-09-25T18:42:48.313Z,24.55
2022-09-25T18:45:35.016Z,20.75
2022-09-25T18:48:21.354Z,22.38
2022-09-25T18:51:07.263Z,21.58
2022-09-25T18:53:53.851Z,23.23
2022-09-25T18:56:39.610Z,23.80
2022-09-25T18:59:29.039Z,22.10
2022-09-25T19:02:30.011Z,24.15
2022-09-25T19:05:17.202Z,22.77
2022-09-25T19:08:03.487Z,25.60
2022-09-25T19:10:49.348Z,26.95
2022-09-25T19:13:35.814Z,24.88
2022-09-25T19:16:22.400Z,27.42
2022-09-25T19:19:08.514Z,23.05
2022-09-25T19:21:54.052Z,25.08
2022-09-25T19:24:41.934Z,26.73
2022-09-25T19:27:29.629Z,28.73
2022-09-25T19:30:15.426Z,26.73
2022-09-25T19:33:01.413Z,22.13
2022-09-25T19:35:46.960Z,35.38
2022-09-25T19:38:34.473Z,27.80
2022-09-25T19:41:22.797Z,21.63
2022-09-25T19:44:13.582Z,24.17
2022-09-25T19:46:59.855Z,23.42
2022-09-25T19:49:45.472Z,23.27
2022-09-25T19:52:31.791Z,27.00
2022-09-25T19:55:17.600Z,23.02
2022-09-25T19:58:04.280Z,25.60
2022-09-25T20:00:51.086Z,26.33
2022-09-25T20:03:37.339Z,23.50
2022-09-25T20:06:24.016Z,23.23
2022-09-25T20:09:11.170Z,23.10
2022-09-25T20:11:56.746Z,23.40
2022-09-25T20:14:42.271Z,24.80
2022-09-25T20:17:28.022Z,22.05
2022-09-25T20:20:14.319Z,21.48
2022-09-25T20:22:59.883Z,23.17
2022-09-25T20:25:45.517Z,24.75
2022-09-25T20:28:31.153Z,23.40
2022-09-25T20:31:16.793Z,23.95
2022-09-25T20:34:02.535Z,25.02
2022-09-25T20:36:49.119Z,24.08
2022-09-25T20:39:34.871Z,25.42
2022-09-25T20:42:21.331Z,21.92
2022-09-25T20:45:08.747Z,23.70
2022-09-25T20:47:55.223Z,23.27
2022-09-25T20:50:49.961Z,23.17
2022-09-25T20:53:36.302Z,22.25
2022-09-25T20:56:23.190Z,22.38
2022-09-25T20:59:08.836Z,22.40
2022-09-25T21:01:54.540Z,26.48
2022-09-25T21:04:40.183Z,28.67
2022-09-25T21:07:26.424Z,21.75
2022-09-25T21:10:12.160Z,21.27
2022-09-25T21:12:57.814Z,26.17
2022-09-25T21:15:43.795Z,26.92
2022-09-25T21:18:29.356Z,23.02
2022-09-25T21:21:15.896Z,36.38
2022-09-25T21:24:02.630Z,34.20
2022-09-25T21:26:48.831Z,32.35
2022-09-25T21:29:34.387Z,30.25
2022-09-25T21:32:19.971Z,29.88
2022-09-25T21:35:06.072Z,25.00
2022-09-25T21:37:51.745Z,28.08
2022-09-25T21:40:37.423Z,21.75
2022-09-25T21:43:23.007Z,27.55
2022-09-25T21:46:18.210Z,23.67
2022-09-25T21:49:06.139Z,23.77
2022-09-25T21:51:52.453Z,22.85
2022-09-25T21:54:38.145Z,27.77
2022-09-25T21:57:23.876Z,25.00
2022-09-25T22:00:10.121Z,20.33
2022-09-25T22:02:56.780Z,22.15
2022-09-25T22:05:42.425Z,27.33
2022-09-25T22:08:27.890Z,21.00
2022-09-25T22:11:14.383Z,26.63
2022-09-25T22:14:01.197Z,23.10
2022-09-25T22:16:49.396Z,24.55
2022-09-25T22:19:35.187Z,22.33
2022-09-25T22:22:20.541Z,22.92
2022-09-25T22:25:06.850Z,22.25
2022-09-25T22:27:52.264Z,19.75
2022-09-25T22:30:38.130Z,19.92
2022-09-25T22:33:24.037Z,20.77
2022-09-25T22:36:11.475Z,19.98
2022-09-25T22:38:57.046Z,19.67
2022-09-25T22:41:43.130Z,21.50
2022-09-25T22:44:28.911Z,21.98
2022-09-25T22:47:14.551Z,16.65
2022-09-25T22:50:00.379Z,17.75
2022-09-25T22:52:45.863Z,20.45
2022-09-25T22:55:31.528Z,19.52
2022-09-25T22:58:19.183Z,19.42
2022-09-25T23:01:07.295Z,21.20
2022-09-25T23:04:01.941Z,18.58
2022-09-25T23:06:47.871Z,16.95
2022-09-25T23:09:33.699Z,16.73
2022-09-25T23:12:19.415Z,15.00
2022-09-25T23:15:05.333Z,15.32
2022-09-25T23:17:51.106Z,19.52
2022-09-25T23:20:36.648Z,14.68
2022-09-25T23:23:22.415Z,19.85
2022-09-25T23:26:08.971Z,19.85
2022-09-25T23:28:54.959Z,25.25
2022-09-25T23:31:42.230Z,18.88
2022-09-25T23:34:28.231Z,15.57
2022-09-25T23:37:13.743Z,17.95
2022-09-25T23:39:59.867Z,12.95
2022-09-25T23:42:45.223Z,16.55
2022-09-25T23:45:30.932Z,15.07
2022-09-25T23:48:16.695Z,12.13
2022-09-25T23:51:02.388Z,20.13
2022-09-25T23:53:48.479Z,13.48
2022-09-25T23:56:35.949Z,11.10
2022-09-25T23:59:22.402Z,11.77
